Time;durP1;ratioP1;P1;durP2;ratioP2;P2;SDS_P1;SDS_P2;PMS_P1;PMS_P2;Temp;Humidity;BMP_temperature;BMP_pressure;BME280_temperature;BME280_humidity;BME280_pressure;Samples;Min_cycle;Max_cycle;Signal;HPM_P1;HPM_P2
2023/11/07 00:02:04;;;;;;;5.95;2.10;;;;;;;;;;10292968;28;20068;-56
2023/11/07 00:07:02;;;;;;;5.05;1.67;;;;;;;;;;10292184;28;20056;-56
2023/11/07 00:12:02;;;;;;;4.43;2.22;;;;;;;;;;10291403;28;20076;-54
2023/11/07 00:17:02;;;;;;;4.85;2.20;;;;;;;;;;10289749;28;20080;-56
2023/11/07 00:22:00;;;;;;;5.57;1.88;;;;;;;;;;10291292;28;20068;-54
2023/11/07 00:26:58;;;;;;;4.88;1.77;;;;;;;;;;10290165;28;20067;-57
2023/11/07 00:31:57;;;;;;;3.35;1.75;;;;;;;;;;10289123;28;20474;-56
2023/11/07 00:36:56;;;;;;;4.40;1.75;;;;;;;;;;10290529;28;20083;-57
2023/11/07 00:41:55;;;;;;;3.50;2.17;;;;;;;;;;10290685;28;20085;-58
2023/11/07 00:46:54;;;;;;;4.68;1.83;;;;;;;;;;10287380;28;20060;-52
2023/11/07 00:51:52;;;;;;;4.15;1.88;;;;;;;;;;10290170;28;20068;-49
2023/11/07 00:56:52;;;;;;;2.42;1.40;;;;;;;;;;10286547;28;20091;-54
2023/11/07 01:01:50;;;;;;;8.55;2.75;;;;;;;;;;10290650;28;20076;-56
2023/11/07 01:06:48;;;;;;;5.78;1.73;;;;;;;;;;10290005;28;20061;-55
2023/11/07 01:11:47;;;;;;;6.47;2.08;;;;;;;;;;10297201;28;20078;-56
2023/11/07 01:16:46;;;;;;;4.47;2.10;;;;;;;;;;10289747;28;20079;-57
2023/11/07 01:21:45;;;;;;;4.10;1.40;;;;;;;;;;10294854;28;20049;-56
2023/11/07 01:26:43;;;;;;;3.67;1.95;;;;;;;;;;10290695;28;20048;-56
2023/11/07 01:31:42;;;;;;;3.63;1.70;;;;;;;;;;10287402;28;20064;-53
2023/11/07 01:36:41;;;;;;;4.55;2.22;;;;;;;;;;10288852;28;20091;-57
2023/11/07 01:41:39;;;;;;;10.82;1.88;;;;;;;;;;10286520;28;20064;-57
2023/11/07 01:46:38;;;;;;;4.75;1.52;;;;;;;;;;10287758;28;20069;-56
2023/11/07 01:51:36;;;;;;;2.47;1.80;;;;;;;;;;10288374;28;20044;-58
2023/11/07 01:56:36;;;;;;;3.97;1.80;;;;;;;;;;10289225;28;20075;-57
2023/11/07 02:01:35;;;;;;;5.75;1.70;;;;;;;;;;10294495;28;20044;-58
2023/11/07 02:06:34;;;;;;;4.53;2.90;;;;;;;;;;10288192;28;20064;-58
2023/11/07 02:11:32;;;;;;;5.75;3.00;;;;;;;;;;10288394;28;20513;-56
2023/11/07 02:16:31;;;;;;;7.07;2.85;;;;;;;;;;10289467;28;20072;-56
2023/11/07 02:21:30;;;;;;;6.45;3.08;;;;;;;;;;10287981;28;20072;-57
2023/11/07 02:26:30;;;;;;;6.88;3.10;;;;;;;;;;10289457;28;20071;-56
2023/11/07 02:31:29;;;;;;;5.55;3.25;;;;;;;;;;10291382;28;20076;-57
2023/11/07 02:36:27;;;;;;;6.00;2.72;;;;;;;;;;10293786;28;20076;-57
2023/11/07 02:41:26;;;;;;;4.95;2.63;;;;;;;;;;10285570;28;20537;-57
2023/11/07 02:46:26;;;;;;;9.43;2.85;;;;;;;;;;10283150;28;20053;-57
2023/11/07 02:51:24;;;;;;;10.13;2.70;;;;;;;;;;10297956;28;20145;-57
2023/11/07 02:56:25;;;;;;;4.85;2.42;;;;;;;;;;10291100;28;20073;-57
2023/11/07 03:01:24;;;;;;;6.40;2.95;;;;;;;;;;10290089;28;20065;-57
2023/11/07 03:06:22;;;;;;;5.10;2.58;;;;;;;;;;10292915;28;20125;-57
2023/11/07 03:11:21;;;;;;;9.70;4.60;;;;;;;;;;10294832;28;20070;-57
2023/11/07 03:16:19;;;;;;;11.75;4.57;;;;;;;;;;10295037;28;20072;-57
2023/11/07 03:21:19;;;;;;;10.25;4.63;;;;;;;;;;10299994;28;20080;-56
2023/11/07 03:26:17;;;;;;;7.18;3.72;;;;;;;;;;10293848;28;20075;-56
2023/11/07 03:31:16;;;;;;;8.52;3.20;;;;;;;;;;10294032;28;20079;-58
2023/11/07 03:36:15;;;;;;;4.07;2.50;;;;;;;;;;10292084;28;20067;-56
2023/11/07 03:41:14;;;;;;;5.50;2.10;;;;;;;;;;10293498;28;20080;-57
2023/11/07 03:46:13;;;;;;;5.65;2.70;;;;;;;;;;10291942;28;20069;-57
2023/11/07 03:51:11;;;;;;;5.53;2.47;;;;;;;;;;10293876;28;20087;-57
2023/11/07 03:56:10;;;;;;;8.25;2.75;;;;;;;;;;10292607;28;20093;-56
2023/11/07 04:01:09;;;;;;;7.35;2.50;;;;;;;;;;10288334;28;20529;-57
2023/11/07 04:06:08;;;;;;;4.97;2.30;;;;;;;;;;10289165;28;20073;-57
2023/11/07 04:11:07;;;;;;;6.07;2.60;;;;;;;;;;10291895;28;20068;-57
2023/11/07 04:16:05;;;;;;;5.97;2.15;;;;;;;;;;10291780;28;20083;-57
2023/11/07 04:21:05;;;;;;;3.42;2.28;;;;;;;;;;10292036;28;20072;-56
2023/11/07 04:26:04;;;;;;;6.18;3.35;;;;;;;;;;10292255;28;20076;-56
2023/11/07 04:31:02;;;;;;;9.98;4.07;;;;;;;;;;10291343;28;20071;-57
2023/11/07 04:36:01;;;;;;;6.05;3.55;;;;;;;;;;10292625;28;20088;-56
2023/11/07 04:41:02;;;;;;;7.32;4.03;;;;;;;;;;10291681;28;20073;-58
2023/11/07 04:46:00;;;;;;;8.25;3.03;;;;;;;;;;10292183;28;20040;-56
2023/11/07 04:50:58;;;;;;;7.00;3.55;;;;;;;;;;10289941;28;20073;-56
2023/11/07 04:55:57;;;;;;;6.90;2.72;;;;;;;;;;10289958;28;20567;-57
2023/11/07 05:00:56;;;;;;;8.68;3.05;;;;;;;;;;10291123;28;20079;-57
2023/11/07 05:05:55;;;;;;;5.68;2.63;;;;;;;;;;10303199;28;20441;-57
2023/11/07 05:10:54;;;;;;;13.45;3.97;;;;;;;;;;10289939;28;20099;-58
2023/11/07 05:15:53;;;;;;;10.23;2.85;;;;;;;;;;10285384;28;20377;-57
2023/11/07 05:20:53;;;;;;;6.45;2.78;;;;;;;;;;10286044;28;20080;-56
2023/11/07 05:25:51;;;;;;;5.72;3.10;;;;;;;;;;10288614;28;20072;-54
2023/11/07 05:30:49;;;;;;;8.30;3.03;;;;;;;;;;10285537;28;20513;-57
2023/11/07 05:35:47;;;;;;;5.10;2.17;;;;;;;;;;10290150;28;20067;-53
2023/11/07 05:40:47;;;;;;;4.68;2.40;;;;;;;;;;10286145;28;20064;-55
2023/11/07 05:45:45;;;;;;;5.30;2.20;;;;;;;;;;10285102;28;20077;-53
2023/11/07 05:50:44;;;;;;;5.82;2.47;;;;;;;;;;10286727;28;20076;-56
2023/11/07 05:55:42;;;;;;;7.57;3.53;;;;;;;;;;10287403;28;20509;-57
2023/11/07 06:00:42;;;;;;;7.85;3.05;;;;;;;;;;10289047;28;20490;-55
2023/11/07 06:05:41;;;;;;;5.43;2.92;;;;;;;;;;10280465;28;20076;-58
2023/11/07 06:10:43;;;;;;;7.78;3.67;;;;;;;;;;10284349;28;20065;-58
2023/11/07 06:15:42;;;;;;;6.65;3.83;;;;;;;;;;10288303;28;20098;-58
2023/11/07 06:20:41;;;;;;;11.90;4.32;;;;;;;;;;10285779;28;20174;-59
2023/11/07 06:25:39;;;;;;;8.95;3.92;;;;;;;;;;10289934;28;20065;-58
2023/11/07 06:30:38;;;;;;;12.27;3.65;;;;;;;;;;10286630;28;20080;-57
2023/11/07 06:35:37;;;;;;;8.75;3.67;;;;;;;;;;10292369;28;20080;-56
2023/11/07 06:40:35;;;;;;;12.38;3.53;;;;;;;;;;10284505;28;20092;-57
2023/11/07 06:45:34;;;;;;;9.60;4.15;;;;;;;;;;10291419;28;20068;-56
2023/11/07 06:50:32;;;;;;;15.07;7.28;;;;;;;;;;10293793;28;20071;-55
2023/11/07 06:55:33;;;;;;;16.67;7.10;;;;;;;;;;10292673;28;20076;-57
2023/11/07 07:00:31;;;;;;;24.27;10.93;;;;;;;;;;10290589;28;20466;-55
2023/11/07 07:05:29;;;;;;;17.45;8.05;;;;;;;;;;10287763;28;20087;-57
2023/11/07 07:10:28;;;;;;;13.95;7.93;;;;;;;;;;10292188;28;20071;-58
2023/11/07 07:15:27;;;;;;;26.02;7.03;;;;;;;;;;10293484;28;20077;-56
2023/11/07 07:20:28;;;;;;;21.83;6.25;;;;;;;;;;10288591;28;20072;-55
2023/11/07 07:25:27;;;;;;;17.42;8.00;;;;;;;;;;10293626;28;20509;-56
2023/11/07 07:30:26;;;;;;;22.00;7.80;;;;;;;;;;10285312;28;20075;-57
2023/11/07 07:35:32;;;;;;;12.45;5.22;;;;;;;;;;10290862;28;20131;-58
2023/11/07 07:40:31;;;;;;;9.25;3.50;;;;;;;;;;10292332;28;20514;-57
2023/11/07 07:45:29;;;;;;;11.02;4.63;;;;;;;;;;10292720;28;20068;-58
2023/11/07 07:50:32;;;;;;;16.25;4.90;;;;;;;;;;10291604;28;20065;-56
2023/11/07 07:55:31;;;;;;;13.63;5.22;;;;;;;;;;10290907;28;20152;-58
2023/11/07 08:00:37;;;;;;;17.85;6.05;;;;;;;;;;10289571;28;20079;-56
2023/11/07 08:05:39;;;;;;;14.77;4.75;;;;;;;;;;10290833;28;20076;-58
2023/11/07 08:10:39;;;;;;;18.10;5.45;;;;;;;;;;10293046;28;20072;-54
2023/11/07 08:15:38;;;;;;;10.80;5.55;;;;;;;;;;10291462;28;20068;-58
2023/11/07 08:20:37;;;;;;;18.05;6.63;;;;;;;;;;10290689;28;20087;-56
2023/11/07 08:25:36;;;;;;;7.45;3.47;;;;;;;;;;10292890;28;20072;-58
2023/11/07 08:30:37;;;;;;;9.07;3.03;;;;;;;;;;10293909;28;20479;-57
2023/11/07 08:35:38;;;;;;;7.93;3.25;;;;;;;;;;10291167;28;20083;-58
2023/11/07 08:40:37;;;;;;;7.32;3.38;;;;;;;;;;10292463;28;20099;-58
2023/11/07 08:45:35;;;;;;;9.38;3.50;;;;;;;;;;10291082;28;20084;-59
2023/11/07 08:50:34;;;;;;;13.70;4.32;;;;;;;;;;10291010;28;20080;-58
2023/11/07 08:55:34;;;;;;;6.38;2.72;;;;;;;;;;10292821;28;20206;-58
2023/11/07 09:00:33;;;;;;;8.05;2.90;;;;;;;;;;10290420;28;20068;-58
2023/11/07 09:05:32;;;;;;;7.40;3.10;;;;;;;;;;10290251;28;20068;-57
2023/11/07 09:10:31;;;;;;;4.50;2.85;;;;;;;;;;10289271;28;20091;-59
2023/11/07 09:15:31;;;;;;;5.78;2.65;;;;;;;;;;10290182;28;20060;-58
2023/11/07 09:20:29;;;;;;;3.58;2.25;;;;;;;;;;10288609;28;20076;-59
2023/11/07 09:25:28;;;;;;;5.57;2.63;;;;;;;;;;10289670;28;20084;-59
2023/11/07 09:30:26;;;;;;;6.03;2.25;;;;;;;;;;10287534;28;20079;-57
2023/11/07 09:35:26;;;;;;;7.90;2.38;;;;;;;;;;10287561;28;20102;-58
2023/11/07 09:40:25;;;;;;;6.38;2.47;;;;;;;;;;10290450;28;20084;-59
2023/11/07 09:45:24;;;;;;;6.40;2.65;;;;;;;;;;10290880;28;20088;-59
2023/11/07 09:50:23;;;;;;;11.18;3.15;;;;;;;;;;10289749;28;20071;-58
2023/11/07 09:55:24;;;;;;;12.35;3.22;;;;;;;;;;10288170;28;20060;-58
2023/11/07 10:00:22;;;;;;;7.95;2.90;;;;;;;;;;10291906;28;20080;-59
2023/11/07 10:05:21;;;;;;;14.05;6.32;;;;;;;;;;10298678;28;20063;-58
2023/11/07 10:10:19;;;;;;;9.30;3.20;;;;;;;;;;10297278;28;20069;-59
2023/11/07 10:15:20;;;;;;;14.00;5.25;;;;;;;;;;10296238;28;20087;-59
2023/11/07 10:20:19;;;;;;;8.88;4.28;;;;;;;;;;10295737;28;20084;-59
2023/11/07 10:25:26;;;;;;;14.02;3.70;;;;;;;;;;10296882;28;20075;-59
2023/11/07 10:30:35;;;;;;;8.27;3.08;;;;;;;;;;10294065;28;20081;-58
2023/11/07 10:35:34;;;;;;;11.07;4.78;;;;;;;;;;10293357;28;20084;-57
2023/11/07 10:40:39;;;;;;;10.45;3.85;;;;;;;;;;10295076;28;20072;-58
2023/11/07 10:45:41;;;;;;;10.95;3.40;;;;;;;;;;10295185;28;20076;-58
2023/11/07 10:50:40;;;;;;;9.13;3.75;;;;;;;;;;10296216;28;20079;-59
2023/11/07 10:55:38;;;;;;;6.13;3.42;;;;;;;;;;10295665;28;20079;-56
2023/11/07 11:00:37;;;;;;;8.77;3.20;;;;;;;;;;10296258;28;20094;-59
2023/11/07 11:05:38;;;;;;;7.03;3.17;;;;;;;;;;10294780;28;20080;-59
2023/11/07 11:10:41;;;;;;;9.40;4.07;;;;;;;;;;10294791;28;20076;-59
2023/11/07 11:15:39;;;;;;;13.82;5.25;;;;;;;;;;10289616;28;20071;-59
2023/11/07 11:20:44;;;;;;;8.05;4.03;;;;;;;;;;10294407;28;20475;-59
2023/11/07 11:25:51;;;;;;;8.15;4.03;;;;;;;;;;10294422;28;20075;-59
2023/11/07 11:30:54;;;;;;;4.80;2.92;;;;;;;;;;10292703;28;20068;-57
2023/11/07 11:35:55;;;;;;;5.60;2.78;;;;;;;;;;10293548;28;20064;-58
2023/11/07 11:40:54;;;;;;;6.28;3.88;;;;;;;;;;10293120;28;20076;-58
2023/11/07 11:45:55;;;;;;;13.48;3.95;;;;;;;;;;10293948;28;20072;-58
2023/11/07 11:51:09;;;;;;;10.30;2.95;;;;;;;;;;10295318;28;20065;-59
2023/11/07 11:56:12;;;;;;;6.10;3.47;;;;;;;;;;10292348;28;20071;-59
2023/11/07 12:01:11;;;;;;;9.70;3.38;;;;;;;;;;10289210;28;20079;-58
2023/11/07 12:06:09;;;;;;;8.43;3.65;;;;;;;;;;10292147;28;20081;-60
2023/11/07 12:11:09;;;;;;;8.70;3.72;;;;;;;;;;10292562;28;20072;-58
2023/11/07 12:16:19;;;;;;;6.80;2.50;;;;;;;;;;10291741;28;20075;-59
2023/11/07 12:21:22;;;;;;;7.95;3.53;;;;;;;;;;10292814;28;20088;-58
2023/11/07 12:26:22;;;;;;;10.85;3.92;;;;;;;;;;10292146;28;20080;-56
2023/11/07 12:31:22;;;;;;;8.98;3.60;;;;;;;;;;10293245;28;20468;-58
2023/11/07 12:36:25;;;;;;;10.43;3.70;;;;;;;;;;10293499;28;20106;-56
2023/11/07 12:41:24;;;;;;;8.13;3.55;;;;;;;;;;10293332;28;20077;-56
2023/11/07 12:46:23;;;;;;;10.80;3.95;;;;;;;;;;10289550;28;20060;-58
2023/11/07 12:51:21;;;;;;;10.60;3.88;;;;;;;;;;10291090;28;20076;-58
2023/11/07 12:56:21;;;;;;;11.85;3.63;;;;;;;;;;10290609;28;20099;-58
2023/11/07 13:01:23;;;;;;;8.60;2.45;;;;;;;;;;10289922;28;20096;-59
2023/11/07 13:06:22;;;;;;;11.15;3.80;;;;;;;;;;10292456;28;20390;-60
2023/11/07 13:11:21;;;;;;;6.75;3.17;;;;;;;;;;10290657;28;20064;-59
2023/11/07 13:16:22;;;;;;;8.82;4.32;;;;;;;;;;10292241;28;20076;-59
2023/11/07 13:21:20;;;;;;;8.38;3.40;;;;;;;;;;10291835;28;20095;-59
2023/11/07 13:26:19;;;;;;;11.98;4.63;;;;;;;;;;10288518;28;20833;-56
2023/11/07 13:31:18;;;;;;;11.02;4.05;;;;;;;;;;10291024;28;20036;-60
2023/11/07 13:36:18;;;;;;;12.90;5.35;;;;;;;;;;10288916;28;20079;-60
2023/11/07 13:41:17;;;;;;;7.40;4.07;;;;;;;;;;10289236;28;20502;-59
2023/11/07 13:46:17;;;;;;;9.93;4.00;;;;;;;;;;10289539;28;20517;-59
2023/11/07 13:51:19;;;;;;;9.75;3.47;;;;;;;;;;10290206;28;20075;-59
2023/11/07 13:56:17;;;;;;;8.40;3.47;;;;;;;;;;10288536;28;20124;-60
2023/11/07 14:01:15;;;;;;;11.32;3.58;;;;;;;;;;10288633;28;20080;-59
2023/11/07 14:06:16;;;;;;;8.60;3.40;;;;;;;;;;10289969;28;20064;-59
2023/11/07 14:11:17;;;;;;;9.50;3.88;;;;;;;;;;10287807;28;20073;-59
2023/11/07 14:16:17;;;;;;;17.15;4.38;;;;;;;;;;10287620;28;20080;-59
2023/11/07 14:21:15;;;;;;;13.80;5.30;;;;;;;;;;10288919;28;20132;-59
2023/11/07 14:26:13;;;;;;;11.20;4.45;;;;;;;;;;10290110;28;20533;-59
2023/11/07 14:31:13;;;;;;;16.92;4.63;;;;;;;;;;10291378;28;20072;-58
2023/11/07 14:36:11;;;;;;;13.52;10.07;;;;;;;;;;10288022;28;20075;-57
2023/11/07 14:41:10;;;;;;;22.00;11.95;;;;;;;;;;10289767;28;20080;-58
2023/11/07 14:46:10;;;;;;;13.82;9.13;;;;;;;;;;10290579;28;20076;-58
2023/11/07 14:51:09;;;;;;;9.90;6.93;;;;;;;;;;10296340;28;20072;-59
2023/11/07 14:56:08;;;;;;;9.68;6.68;;;;;;;;;;10295122;28;20095;-57
2023/11/07 15:01:09;;;;;;;9.27;6.38;;;;;;;;;;10295931;28;20076;-57
2023/11/07 15:06:10;;;;;;;12.90;5.53;;;;;;;;;;10295278;28;20095;-57
2023/11/07 15:11:10;;;;;;;9.15;5.57;;;;;;;;;;10295284;28;20076;-58
2023/11/07 15:16:10;;;;;;;12.18;4.93;;;;;;;;;;10293615;28;20536;-57
2023/11/07 15:21:10;;;;;;;12.05;5.03;;;;;;;;;;10294276;28;20084;-58
2023/11/07 15:26:10;;;;;;;9.30;5.72;;;;;;;;;;10289978;28;20077;-58
2023/11/07 15:31:09;;;;;;;10.57;5.80;;;;;;;;;;10294904;28;20064;-58
2023/11/07 15:36:08;;;;;;;10.57;5.57;;;;;;;;;;10292792;28;20069;-58
2023/11/07 15:41:06;;;;;;;6.43;3.65;;;;;;;;;;10285324;28;20118;-58
2023/11/07 15:46:06;;;;;;;8.68;4.57;;;;;;;;;;10293262;28;20083;-60
2023/11/07 15:51:05;;;;;;;12.07;4.65;;;;;;;;;;10292154;28;20504;-58
2023/11/07 15:56:04;;;;;;;10.98;4.55;;;;;;;;;;10277991;28;20537;-59
2023/11/07 16:01:03;;;;;;;11.25;4.32;;;;;;;;;;10289756;28;20076;-57
2023/11/07 16:06:03;;;;;;;8.10;4.05;;;;;;;;;;10290400;28;20506;-58
2023/11/07 16:11:03;;;;;;;9.90;4.82;;;;;;;;;;10289495;28;20067;-59
2023/11/07 16:16:02;;;;;;;28.27;18.13;;;;;;;;;;10291508;28;20083;-57
2023/11/07 16:21:00;;;;;;;17.73;12.30;;;;;;;;;;10293492;28;20107;-59
2023/11/07 16:26:00;;;;;;;17.27;8.88;;;;;;;;;;10290757;28;20083;-56
2023/11/07 16:30:58;;;;;;;12.77;8.18;;;;;;;;;;10292937;28;20508;-60
2023/11/07 16:35:57;;;;;;;24.60;14.70;;;;;;;;;;10288246;28;20068;-57
2023/11/07 16:40:55;;;;;;;12.48;5.63;;;;;;;;;;10290651;28;20073;-57
2023/11/07 16:45:55;;;;;;;11.90;6.57;;;;;;;;;;10291435;28;20071;-56
2023/11/07 16:50:53;;;;;;;9.10;5.60;;;;;;;;;;10293825;28;20470;-57
2023/11/07 16:55:55;;;;;;;9.55;5.60;;;;;;;;;;10291643;28;20087;-58
2023/11/07 17:00:55;;;;;;;7.80;4.75;;;;;;;;;;10292272;28;20521;-59
2023/11/07 17:05:54;;;;;;;13.23;6.85;;;;;;;;;;10290188;28;20061;-59
2023/11/07 17:10:52;;;;;;;9.93;4.45;;;;;;;;;;10289202;28;20064;-58
2023/11/07 17:15:51;;;;;;;13.70;5.30;;;;;;;;;;10290567;28;20091;-58
2023/11/07 17:20:51;;;;;;;9.60;5.45;;;;;;;;;;10285733;28;20081;-57
2023/11/07 17:25:49;;;;;;;13.73;4.47;;;;;;;;;;10291720;28;20057;-58
2023/11/07 17:30:50;;;;;;;7.30;3.97;;;;;;;;;;10291000;28;20087;-59
2023/11/07 17:35:48;;;;;;;15.45;3.90;;;;;;;;;;10289340;28;20076;-57
2023/11/07 17:40:49;;;;;;;10.48;4.25;;;;;;;;;;10287917;28;20052;-58
2023/11/07 17:45:48;;;;;;;8.73;4.20;;;;;;;;;;10288797;28;20068;-57
2023/11/07 17:50:47;;;;;;;9.13;4.10;;;;;;;;;;10291104;28;20060;-59
2023/11/07 17:55:45;;;;;;;7.07;3.63;;;;;;;;;;10288730;28;20067;-58
2023/11/07 18:00:45;;;;;;;10.00;3.35;;;;;;;;;;10288659;28;20064;-58
2023/11/07 18:05:44;;;;;;;9.07;3.22;;;;;;;;;;10288256;28;20077;-58
2023/11/07 18:10:42;;;;;;;7.15;3.42;;;;;;;;;;10287302;28;20100;-58
2023/11/07 18:15:43;;;;;;;6.32;3.70;;;;;;;;;;10287796;28;20068;-57
2023/11/07 18:20:43;;;;;;;6.97;3.65;;;;;;;;;;10295100;28;20094;-58
2023/11/07 18:25:42;;;;;;;7.10;4.28;;;;;;;;;;10297139;28;20091;-59
2023/11/07 18:30:40;;;;;;;7.88;3.50;;;;;;;;;;10296747;28;20076;-59
2023/11/07 18:35:38;;;;;;;6.78;3.95;;;;;;;;;;10295916;28;20073;-59
2023/11/07 18:40:39;;;;;;;6.53;3.67;;;;;;;;;;10296008;28;20040;-60
2023/11/07 18:45:38;;;;;;;9.48;3.65;;;;;;;;;;10295220;28;20068;-59
2023/11/07 18:50:36;;;;;;;6.75;3.63;;;;;;;;;;10296842;28;20061;-58
2023/11/07 18:55:35;;;;;;;6.88;3.88;;;;;;;;;;10295508;28;20091;-59
2023/11/07 19:00:38;;;;;;;6.75;4.07;;;;;;;;;;10294815;28;20067;-58
2023/11/07 19:05:37;;;;;;;6.33;4.33;;;;;;;;;;10295001;28;20074;-58
2023/11/07 19:10:36;;;;;;;6.00;4.20;;;;;;;;;;10292212;28;20057;-59
2023/11/07 19:15:40;;;;;;;9.82;3.88;;;;;;;;;;10292092;28;20498;-57
2023/11/07 19:20:38;;;;;;;8.98;3.97;;;;;;;;;;10291074;28;20084;-56
2023/11/07 19:25:37;;;;;;;8.77;4.43;;;;;;;;;;10286794;28;20083;-59
2023/11/07 19:30:38;;;;;;;6.05;3.17;;;;;;;;;;10293888;28;20499;-59
2023/11/07 19:35:39;;;;;;;10.80;3.40;;;;;;;;;;10286594;28;20076;-55
2023/11/07 19:40:37;;;;;;;9.52;3.90;;;;;;;;;;10294545;28;20079;-53
2023/11/07 19:45:37;;;;;;;5.10;3.20;;;;;;;;;;10290011;28;20071;-55
2023/11/07 19:50:36;;;;;;;6.45;3.88;;;;;;;;;;10290173;28;20608;-57
2023/11/07 19:55:36;;;;;;;11.70;4.13;;;;;;;;;;10291373;28;20060;-56
2023/11/07 20:00:34;;;;;;;5.45;3.63;;;;;;;;;;10293289;28;20083;-57
2023/11/07 20:05:33;;;;;;;7.07;4.28;;;;;;;;;;10291312;28;20539;-57
2023/11/07 20:10:32;;;;;;;5.53;3.88;;;;;;;;;;10282046;28;20065;-60
2023/11/07 20:15:32;;;;;;;6.45;3.35;;;;;;;;;;10289648;28;20076;-56
2023/11/07 20:20:31;;;;;;;6.82;3.85;;;;;;;;;;10287230;28;20572;-57
2023/11/07 20:25:29;;;;;;;8.57;4.25;;;;;;;;;;10288348;28;20075;-57
2023/11/07 20:30:27;;;;;;;6.72;3.10;;;;;;;;;;10293436;28;20086;-58
2023/11/07 20:35:27;;;;;;;9.73;3.58;;;;;;;;;;10291433;28;20064;-58
2023/11/07 20:40:26;;;;;;;7.13;3.78;;;;;;;;;;10293156;28;20053;-58
2023/11/07 20:45:27;;;;;;;6.35;3.00;;;;;;;;;;10288814;28;20076;-58
2023/11/07 20:50:27;;;;;;;6.97;3.25;;;;;;;;;;10290053;28;20060;-57
2023/11/07 20:55:28;;;;;;;10.23;3.67;;;;;;;;;;10290435;28;20076;-55
2023/11/07 21:00:26;;;;;;;6.22;3.67;;;;;;;;;;10287254;28;20095;-55
2023/11/07 21:05:24;;;;;;;10.52;4.00;;;;;;;;;;10290233;28;20073;-55
2023/11/07 21:10:25;;;;;;;8.07;4.15;;;;;;;;;;10289227;28;20091;-58
2023/11/07 21:15:24;;;;;;;9.27;4.13;;;;;;;;;;10291034;28;20076;-58
2023/11/07 21:20:22;;;;;;;7.13;3.58;;;;;;;;;;10290740;28;20076;-58
2023/11/07 21:25:21;;;;;;;8.15;3.78;;;;;;;;;;10290623;28;20076;-59
2023/11/07 21:30:20;;;;;;;8.35;3.67;;;;;;;;;;10289423;28;20079;-57
2023/11/07 21:35:21;;;;;;;5.85;3.72;;;;;;;;;;10290619;28;20079;-58
2023/11/07 21:40:20;;;;;;;8.48;3.83;;;;;;;;;;10289790;28;20079;-56
2023/11/07 21:45:19;;;;;;;8.77;3.55;;;;;;;;;;10287374;28;20514;-59
2023/11/07 21:50:20;;;;;;;8.63;3.08;;;;;;;;;;10290034;28;20073;-59
2023/11/07 21:55:18;;;;;;;5.90;3.00;;;;;;;;;;10291331;28;20072;-57
2023/11/07 22:00:18;;;;;;;6.35;3.03;;;;;;;;;;10297166;28;20076;-56
2023/11/07 22:05:17;;;;;;;5.32;2.97;;;;;;;;;;10298702;28;20085;-56
2023/11/07 22:10:17;;;;;;;7.72;3.30;;;;;;;;;;10299195;28;20067;-57
2023/11/07 22:15:15;;;;;;;6.38;3.40;;;;;;;;;;10291567;28;20071;-57
2023/11/07 22:20:14;;;;;;;8.40;3.13;;;;;;;;;;10292091;28;20085;-57
2023/11/07 22:25:12;;;;;;;6.35;2.60;;;;;;;;;;10297345;28;20552;-57
2023/11/07 22:30:15;;;;;;;5.75;3.30;;;;;;;;;;10297440;28;20143;-57
2023/11/07 22:35:14;;;;;;;6.28;3.53;;;;;;;;;;10296750;28;20084;-57
2023/11/07 22:40:13;;;;;;;7.40;3.50;;;;;;;;;;10294906;28;20080;-58
2023/11/07 22:45:11;;;;;;;5.32;3.28;;;;;;;;;;10296951;28;20604;-59
2023/11/07 22:50:11;;;;;;;6.97;3.70;;;;;;;;;;10297027;28;20486;-58
2023/11/07 22:55:10;;;;;;;5.72;2.42;;;;;;;;;;10295244;28;20083;-58
2023/11/07 23:00:10;;;;;;;4.75;2.95;;;;;;;;;;10294393;28;20068;-57
2023/11/07 23:05:10;;;;;;;5.45;3.00;;;;;;;;;;10295117;28;20505;-58
2023/11/07 23:10:15;;;;;;;5.65;2.80;;;;;;;;;;10294033;28;20088;-59
2023/11/07 23:15:13;;;;;;;;;;;;;;;;;;10294748;28;20077;-59
2023/11/07 23:20:12;;;;;;;7.90;3.42;;;;;;;;;;10296037;28;20363;-58
2023/11/07 23:25:12;;;;;;;5.70;2.88;;;;;;;;;;10297908;28;20079;-56
2023/11/07 23:30:10;;;;;;;5.88;3.03;;;;;;;;;;10298553;28;20073;-57
2023/11/07 23:35:09;;;;;;;6.10;3.38;;;;;;;;;;10297905;28;20073;-58
2023/11/07 23:40:10;;;;;;;8.55;2.80;;;;;;;;;;10298034;28;20072;-57
2023/11/07 23:45:11;;;;;;;4.10;2.58;;;;;;;;;;10297806;28;20087;-56
2023/11/07 23:50:09;;;;;;;6.65;3.28;;;;;;;;;;10297658;28;20458;-57
2023/11/07 23:55:09;;;;;;;8.88;4.45;;;;;;;;;;10297662;28;20084;-58
